createdAt,value
2018-05-05T00:01:27.929Z,18.67
2018-05-05T00:03:55.436Z,10.73
2018-05-05T00:06:22.936Z,12.67
2018-05-05T00:08:50.456Z,23.40
2018-05-05T00:11:19.032Z,10.90
2018-05-05T00:13:46.513Z,10.97
2018-05-05T00:16:13.955Z,25.53
2018-05-05T00:18:41.782Z,19.10
2018-05-05T00:21:10.998Z,12.80
2018-05-05T00:23:38.475Z,18.07
2018-05-05T00:26:06.022Z,13.60
2018-05-05T00:28:34.276Z,20.93
2018-05-05T00:31:01.847Z,18.93
2018-05-05T00:33:30.134Z,17.37
2018-05-05T00:35:57.628Z,24.60
2018-05-05T00:38:25.200Z,18.70
2018-05-05T00:40:52.726Z,18.60
2018-05-05T00:43:20.234Z,17.77
2018-05-05T00:45:47.789Z,13.43
2018-05-05T00:48:15.293Z,12.10
2018-05-05T00:50:42.755Z,11.30
2018-05-05T00:53:10.338Z,15.20
2018-05-05T00:55:37.840Z,10.87
2018-05-05T00:58:05.297Z,11.83
2018-05-05T01:00:32.909Z,15.07
2018-05-05T01:03:01.163Z,14.00
2018-05-05T01:05:28.621Z,10.83
2018-05-05T01:07:56.898Z,10.93
2018-05-05T01:10:24.396Z,13.73
2018-05-05T01:12:51.901Z,18.97
2018-05-05T01:15:19.608Z,14.53
2018-05-05T01:17:47.264Z,15.63
2018-05-05T01:20:15.526Z,13.33
2018-05-05T01:22:43.071Z,20.23
2018-05-05T01:25:10.591Z,18.00
2018-05-05T01:27:38.138Z,12.87
2018-05-05T01:30:05.941Z,15.63
2018-05-05T01:32:33.453Z,20.20
2018-05-05T01:35:00.961Z,18.57
2018-05-05T01:37:28.498Z,20.13
2018-05-05T01:39:57.086Z,22.33
2018-05-05T01:42:24.626Z,18.23
2018-05-05T01:44:52.134Z,16.10
2018-05-05T01:47:19.668Z,16.10
2018-05-05T01:49:47.183Z,18.53
2018-05-05T01:52:14.728Z,16.70
2018-05-05T01:54:42.256Z,13.53
2018-05-05T01:57:10.396Z,13.83
2018-05-05T01:59:37.859Z,14.43
2018-05-05T02:02:05.395Z,19.27
2018-05-05T02:04:32.906Z,23.93
2018-05-05T02:07:01.216Z,14.17
2018-05-05T02:09:28.695Z,17.17
2018-05-05T02:11:57.019Z,17.47
2018-05-05T02:14:24.925Z,17.40
2018-05-05T02:16:52.350Z,20.73
2018-05-05T02:19:19.909Z,14.43
2018-05-05T02:21:53.740Z,17.63
2018-05-05T02:24:21.211Z,18.93
2018-05-05T02:26:48.742Z,26.53
2018-05-05T02:29:16.280Z,21.40
2018-05-05T02:31:43.997Z,18.90
2018-05-05T02:34:11.462Z,16.53
2018-05-05T02:36:39.022Z,11.30
2018-05-05T02:39:06.637Z,19.17
2018-05-05T02:41:34.864Z,15.77
2018-05-05T02:44:03.475Z,16.27
2018-05-05T02:46:31.220Z,11.93
2018-05-05T02:48:58.725Z,20.13
2018-05-05T02:51:27.035Z,18.50
2018-05-05T02:53:54.550Z,21.07
2018-05-05T02:56:22.068Z,12.53
2018-05-05T02:58:50.240Z,15.70
2018-05-05T03:01:18.586Z,22.50
2018-05-05T03:03:47.491Z,17.50
2018-05-05T03:06:16.430Z,16.67
2018-05-05T03:08:44.469Z,18.80
2018-05-05T03:11:12.944Z,22.67
2018-05-05T03:13:41.283Z,22.50
2018-05-05T03:16:09.177Z,23.07
2018-05-05T03:18:36.980Z,23.93
2018-05-05T03:21:04.455Z,25.53
2018-05-05T03:23:31.972Z,22.37
2018-05-05T03:26:00.253Z,21.90
2018-05-05T03:28:27.860Z,21.73
2018-05-05T03:30:55.758Z,18.50
2018-05-05T03:33:23.447Z,26.90
2018-05-05T03:35:51.022Z,18.27
2018-05-05T03:38:18.508Z,22.33
2018-05-05T03:40:46.055Z,12.40
2018-05-05T03:43:13.660Z,12.13
2018-05-05T03:45:41.264Z,16.83
2018-05-05T03:48:10.519Z,14.63
2018-05-05T03:50:38.115Z,24.50
2018-05-05T03:53:05.762Z,22.70
2018-05-05T03:55:34.367Z,20.87
2018-05-05T03:58:02.642Z,22.23
2018-05-05T04:00:30.994Z,21.73
2018-05-05T04:02:58.569Z,21.13
2018-05-05T04:05:26.242Z,21.30
2018-05-05T04:07:53.762Z,17.70
2018-05-05T04:10:21.293Z,23.03
2018-05-05T04:12:48.949Z,19.20
2018-05-05T04:15:17.667Z,23.17
2018-05-05T04:17:45.245Z,18.97
2018-05-05T04:20:12.937Z,20.67
2018-05-05T04:22:40.557Z,15.40
2018-05-05T04:25:08.135Z,23.23
2018-05-05T04:27:36.834Z,20.33
2018-05-05T04:30:04.409Z,15.00
2018-05-05T04:32:32.831Z,17.23
2018-05-05T04:35:00.371Z,16.10
2018-05-05T04:37:28.106Z,15.23
2018-05-05T04:39:55.862Z,19.37
2018-05-05T04:42:23.503Z,13.03
2018-05-05T04:44:52.243Z,10.23
2018-05-05T04:47:19.927Z,11.50
2018-05-05T04:49:48.101Z,9.43
2018-05-05T04:52:15.767Z,21.30
2018-05-05T04:54:43.316Z,17.93
2018-05-05T04:57:10.858Z,14.97
2018-05-05T04:59:39.553Z,13.30
2018-05-05T05:02:07.987Z,9.80
2018-05-05T05:04:36.334Z,8.30
2018-05-05T05:07:04.035Z,14.33
2018-05-05T05:09:31.688Z,9.13
2018-05-05T05:11:59.299Z,15.13
2018-05-05T05:14:26.948Z,10.50
2018-05-05T05:16:54.619Z,7.60
2018-05-05T05:19:22.170Z,10.00
2018-05-05T05:21:50.543Z,7.30
2018-05-05T05:24:18.171Z,9.87
2018-05-05T05:26:45.774Z,7.93
2018-05-05T05:29:13.414Z,11.77
2018-05-05T05:31:41.053Z,16.17
2018-05-05T05:34:11.775Z,10.03
2018-05-05T05:36:39.352Z,14.87
2018-05-05T05:39:07.862Z,6.50
2018-05-05T05:41:38.462Z,8.67
2018-05-05T05:44:06.182Z,5.73
2018-05-05T05:46:33.762Z,12.60
2018-05-05T05:49:02.302Z,10.40
2018-05-05T05:51:30.023Z,6.50
2018-05-05T05:53:57.589Z,7.17
2018-05-05T05:56:28.301Z,6.93
2018-05-05T05:58:55.779Z,10.33
2018-05-05T06:01:23.445Z,7.10
2018-05-05T06:03:52.665Z,8.23
2018-05-05T06:06:20.262Z,9.83
2018-05-05T06:08:47.802Z,7.60
2018-05-05T06:11:15.414Z,8.63
2018-05-05T06:13:42.989Z,6.23
2018-05-05T06:16:10.509Z,9.60
2018-05-05T06:18:39.932Z,6.93
2018-05-05T06:21:07.783Z,6.50
2018-05-05T06:23:36.059Z,8.07
2018-05-05T06:26:05.394Z,5.30
2018-05-05T06:28:33.226Z,8.23
2018-05-05T06:31:02.554Z,6.20
2018-05-05T06:33:30.244Z,9.37
2018-05-05T06:35:58.083Z,4.43
2018-05-05T06:38:25.806Z,4.60
2018-05-05T06:40:54.124Z,7.20
2018-05-05T06:43:22.989Z,11.40
2018-05-05T06:45:51.632Z,3.90
2018-05-05T06:48:19.397Z,7.60
2018-05-05T06:50:47.023Z,7.00
2018-05-05T06:53:14.529Z,4.97
2018-05-05T06:55:42.627Z,12.30
2018-05-05T06:58:10.318Z,5.00
2018-05-05T07:00:37.874Z,4.83
2018-05-05T07:03:06.492Z,6.13
2018-05-05T07:05:34.973Z,6.10
2018-05-05T07:08:03.112Z,3.60
2018-05-05T07:10:30.602Z,3.33
2018-05-05T07:12:58.992Z,4.30
2018-05-05T07:15:29.583Z,3.60
2018-05-05T07:17:56.975Z,4.70
2018-05-05T07:20:25.633Z,6.83
2018-05-05T07:22:53.493Z,4.87
2018-05-05T07:25:21.081Z,4.53
2018-05-05T07:27:48.694Z,4.30
2018-05-05T07:30:17.416Z,3.30
2018-05-05T07:32:45.296Z,11.20
2018-05-05T07:35:12.863Z,6.20
2018-05-05T07:37:40.403Z,2.23
2018-05-05T07:40:07.974Z,3.50
2018-05-05T07:42:35.521Z,4.47
2018-05-05T07:45:03.192Z,3.53
2018-05-05T07:47:30.913Z,3.47
2018-05-05T07:49:59.145Z,10.10
2018-05-05T07:52:26.827Z,15.67
2018-05-05T07:54:54.386Z,5.67
2018-05-05T07:57:21.939Z,3.33
2018-05-05T07:59:49.592Z,4.77
2018-05-05T08:02:17.088Z,3.60
2018-05-05T08:04:44.642Z,12.93
2018-05-05T08:07:14.078Z,5.93
2018-05-05T08:09:41.674Z,6.70
2018-05-05T08:12:09.365Z,4.17
2018-05-05T08:14:37.042Z,4.70
2018-05-05T08:17:04.655Z,4.00
2018-05-05T08:19:32.277Z,5.10
2018-05-05T08:21:59.867Z,3.33
2018-05-05T08:24:27.513Z,4.87
2018-05-05T08:26:55.070Z,3.33
2018-05-05T08:29:25.725Z,6.77
2018-05-05T08:31:53.383Z,2.97
2018-05-05T08:34:21.156Z,11.23
2018-05-05T08:36:49.409Z,4.13
2018-05-05T08:39:17.029Z,3.53
2018-05-05T08:41:44.506Z,6.40
2018-05-05T08:44:12.079Z,7.67
2018-05-05T08:46:40.180Z,4.73
2018-05-05T08:49:07.717Z,3.70
2018-05-05T08:51:35.994Z,4.50
2018-05-05T08:54:04.274Z,4.37
2018-05-05T08:56:31.838Z,3.73
2018-05-05T08:59:00.139Z,4.00
2018-05-05T09:01:27.756Z,5.00
2018-05-05T09:03:55.407Z,5.23
2018-05-05T09:06:23.079Z,4.20
2018-05-05T09:08:50.545Z,3.30
2018-05-05T09:11:18.179Z,15.00
2018-05-05T09:13:45.637Z,2.83
2018-05-05T09:16:14.348Z,3.10
2018-05-05T09:18:41.819Z,4.63
2018-05-05T09:21:09.343Z,2.93
2018-05-05T09:23:36.833Z,9.10
2018-05-05T09:26:04.348Z,4.60
2018-05-05T09:28:31.856Z,14.00
2018-05-05T09:30:59.491Z,8.97
2018-05-05T09:33:28.159Z,4.63
2018-05-05T09:35:56.368Z,5.27
2018-05-05T09:38:23.982Z,5.30
2018-05-05T09:40:52.292Z,10.80
2018-05-05T09:43:20.000Z,3.90
2018-05-05T09:45:48.286Z,5.63
2018-05-05T09:48:16.910Z,4.00
2018-05-05T09:50:44.598Z,5.00
2018-05-05T09:53:12.343Z,3.50
2018-05-05T09:55:39.901Z,4.43
2018-05-05T09:58:07.643Z,2.70
2018-05-05T10:00:35.185Z,3.73
2018-05-05T10:03:02.800Z,4.20
2018-05-05T10:05:30.311Z,3.63
2018-05-05T10:07:57.841Z,3.20
2018-05-05T10:10:25.438Z,6.20
2018-05-05T10:12:52.995Z,3.70
2018-05-05T10:15:21.335Z,2.20
2018-05-05T10:17:48.837Z,3.10
2018-05-05T10:20:16.830Z,3.80
2018-05-05T10:22:44.307Z,2.37
2018-05-05T10:25:12.087Z,2.87
2018-05-05T10:27:39.609Z,2.30
2018-05-05T10:30:07.698Z,3.17
2018-05-05T10:32:35.331Z,2.87
2018-05-05T10:35:02.972Z,10.80
2018-05-05T10:37:31.321Z,7.50
2018-05-05T10:39:59.631Z,5.20
2018-05-05T10:42:27.902Z,4.30
2018-05-05T10:44:55.769Z,4.10
2018-05-05T10:47:23.513Z,4.63
2018-05-05T10:49:51.833Z,5.77
2018-05-05T10:52:19.433Z,6.83
2018-05-05T10:54:46.975Z,2.63
2018-05-05T10:57:15.125Z,3.83
2018-05-05T10:59:43.425Z,3.27
2018-05-05T11:02:11.064Z,9.27
2018-05-05T11:04:38.547Z,2.40
2018-05-05T11:07:06.566Z,3.60
2018-05-05T11:09:34.222Z,4.40
2018-05-05T11:12:02.475Z,3.43
2018-05-05T11:14:29.961Z,12.40
2018-05-05T11:16:57.489Z,2.80
2018-05-05T11:19:25.397Z,2.70
2018-05-05T11:21:52.892Z,7.60
2018-05-05T11:24:22.050Z,6.67
2018-05-05T11:26:49.583Z,3.30
2018-05-05T11:29:19.156Z,4.90
2018-05-05T11:31:46.767Z,3.30
2018-05-05T11:34:14.380Z,5.30
2018-05-05T11:36:41.842Z,6.80
2018-05-05T11:39:09.434Z,8.47
2018-05-05T11:41:37.686Z,2.03
2018-05-05T11:44:05.802Z,6.03
2018-05-05T11:46:34.072Z,4.40
2018-05-05T11:49:02.273Z,4.00
2018-05-05T11:51:31.343Z,3.70
2018-05-05T11:53:58.861Z,2.40
2018-05-05T11:56:26.538Z,3.63
2018-05-05T11:58:54.808Z,5.03
2018-05-05T12:01:22.596Z,3.43
2018-05-05T12:03:50.091Z,8.33
2018-05-05T12:06:17.783Z,2.70
2018-05-05T12:08:46.313Z,6.93
2018-05-05T12:11:13.860Z,4.43
2018-05-05T12:13:42.135Z,2.80
2018-05-05T12:16:09.719Z,3.17
2018-05-05T12:18:39.561Z,2.53
2018-05-05T12:21:08.111Z,3.00
2018-05-05T12:23:35.635Z,3.00
2018-05-05T12:26:03.160Z,3.43
2018-05-05T12:28:31.051Z,5.27
2018-05-05T12:30:59.569Z,4.17
2018-05-05T12:33:27.085Z,3.83
2018-05-05T12:35:54.545Z,4.10
2018-05-05T12:38:22.870Z,2.33
2018-05-05T12:40:50.344Z,2.47
2018-05-05T12:43:18.102Z,3.03
2018-05-05T12:45:45.593Z,4.23
2018-05-05T12:48:13.165Z,6.90
2018-05-05T12:50:40.673Z,9.23
2018-05-05T12:53:08.157Z,4.40
2018-05-05T12:55:35.733Z,2.13
2018-05-05T12:58:03.242Z,3.90
2018-05-05T13:00:31.364Z,2.87
2018-05-05T13:02:59.616Z,4.20
2018-05-05T13:05:27.900Z,5.13
2018-05-05T13:07:55.426Z,8.13
2018-05-05T13:10:22.937Z,3.73
2018-05-05T13:12:50.463Z,5.53
2018-05-05T13:15:18.059Z,4.67
2018-05-05T13:17:45.569Z,4.60
2018-05-05T13:20:13.625Z,4.53
2018-05-05T13:22:41.422Z,5.87
2018-05-05T13:25:08.921Z,3.57
2018-05-05T13:27:36.441Z,6.80
2018-05-05T13:30:03.915Z,3.27
2018-05-05T13:32:31.516Z,3.33
2018-05-05T13:34:59.264Z,3.03
2018-05-05T13:37:27.889Z,3.30
2018-05-05T13:39:55.379Z,3.60
2018-05-05T13:42:23.567Z,3.60
2018-05-05T13:44:51.023Z,9.63
2018-05-05T13:47:18.629Z,11.00
2018-05-05T13:49:46.189Z,5.57
2018-05-05T13:52:13.660Z,5.07
2018-05-05T13:54:42.112Z,2.80
2018-05-05T13:57:09.625Z,3.43
2018-05-05T13:59:37.143Z,4.67
2018-05-05T14:02:04.644Z,13.93
2018-05-05T14:04:33.012Z,2.90
2018-05-05T14:07:01.380Z,3.17
2018-05-05T14:09:28.853Z,3.70
2018-05-05T14:11:56.385Z,5.47
2018-05-05T14:14:23.849Z,5.13
2018-05-05T14:16:51.380Z,5.23
2018-05-05T14:19:19.864Z,3.40
2018-05-05T14:21:47.442Z,3.00
2018-05-05T14:24:16.110Z,5.93
2018-05-05T14:26:43.657Z,8.93
2018-05-05T14:29:11.112Z,2.87
2018-05-05T14:31:39.266Z,13.70
2018-05-05T14:34:06.804Z,2.70
2018-05-05T14:36:34.648Z,2.93
2018-05-05T14:39:02.145Z,12.23
2018-05-05T14:41:29.591Z,2.60
2018-05-05T14:43:57.124Z,5.93
2018-05-05T14:46:24.608Z,7.37
2018-05-05T14:48:52.869Z,3.17
2018-05-05T14:51:21.209Z,6.20
2018-05-05T14:53:48.664Z,7.03
2018-05-05T14:56:16.166Z,2.80
2018-05-05T14:58:43.750Z,4.30
2018-05-05T15:01:11.237Z,3.70
2018-05-05T15:03:39.082Z,2.43
2018-05-05T15:06:07.394Z,3.77
2018-05-05T15:08:35.003Z,5.43
2018-05-05T15:11:02.469Z,4.87
2018-05-05T15:13:29.947Z,3.03
2018-05-05T15:15:57.537Z,8.73
2018-05-05T15:18:25.038Z,3.20
2018-05-05T15:20:52.570Z,4.03
2018-05-05T15:23:20.064Z,4.57
2018-05-05T15:25:47.701Z,2.70
2018-05-05T15:28:15.272Z,4.90
2018-05-05T15:30:42.977Z,6.70
2018-05-05T15:33:10.439Z,2.07
2018-05-05T15:35:38.002Z,3.40
2018-05-05T15:38:05.470Z,2.33
2018-05-05T15:40:33.062Z,2.93
2018-05-05T15:43:01.370Z,18.50
2018-05-05T15:45:30.501Z,2.33
2018-05-05T15:47:57.975Z,4.87
2018-05-05T15:50:25.469Z,2.77
2018-05-05T15:52:53.776Z,3.63
2018-05-05T15:55:21.192Z,2.33
2018-05-05T15:57:48.764Z,3.17
2018-05-05T16:00:16.185Z,5.87
2018-05-05T16:02:44.027Z,2.73
2018-05-05T16:05:11.491Z,3.03
2018-05-05T16:07:39.004Z,3.90
2018-05-05T16:10:06.572Z,2.87
2018-05-05T16:12:34.051Z,5.40
2018-05-05T16:15:02.467Z,2.70
2018-05-05T16:17:30.810Z,4.33
2018-05-05T16:19:59.080Z,4.83
2018-05-05T16:22:26.622Z,6.90
2018-05-05T16:24:54.192Z,2.77
2018-05-05T16:27:21.715Z,4.03
2018-05-05T16:29:49.188Z,2.40
2018-05-05T16:32:16.718Z,3.33
2018-05-05T16:34:44.227Z,4.10
2018-05-05T16:37:11.683Z,2.27
2018-05-05T16:39:39.241Z,9.00
2018-05-05T16:42:06.705Z,4.60
2018-05-05T16:44:34.920Z,3.70
2018-05-05T16:47:02.636Z,3.83
2018-05-05T16:49:30.520Z,3.47
2018-05-05T16:51:58.054Z,3.10
2018-05-05T16:54:25.473Z,2.10
2018-05-05T16:56:53.037Z,41.13
2018-05-05T16:59:20.492Z,14.63
2018-05-05T17:01:47.964Z,5.40
2018-05-05T17:04:15.465Z,2.60
2018-05-05T17:06:42.941Z,14.87
2018-05-05T17:09:11.326Z,3.37
2018-05-05T17:11:39.606Z,4.33
2018-05-05T17:14:07.865Z,3.47
2018-05-05T17:16:35.361Z,5.80
2018-05-05T17:19:03.674Z,6.47
2018-05-05T17:21:31.239Z,5.53
2018-05-05T17:23:58.718Z,4.77
2018-05-05T17:26:26.428Z,8.13
2018-05-05T17:28:53.967Z,7.00
2018-05-05T17:31:22.213Z,4.27
2018-05-05T17:33:51.507Z,6.73
2018-05-05T17:36:20.656Z,3.63
2018-05-05T17:38:48.062Z,7.20
2018-05-05T17:41:15.978Z,6.30
2018-05-05T17:43:44.751Z,3.50
2018-05-05T17:46:12.573Z,11.70
2018-05-05T17:48:41.062Z,9.83
2018-05-05T17:51:08.666Z,4.60
2018-05-05T17:53:36.181Z,9.07
2018-05-05T17:56:06.519Z,5.53
2018-05-05T17:58:34.302Z,10.10
2018-05-05T18:01:02.037Z,4.90
2018-05-05T18:03:31.978Z,3.60
2018-05-05T18:06:00.346Z,4.20
2018-05-05T18:08:27.824Z,4.70
2018-05-05T18:10:55.361Z,2.00
2018-05-05T18:13:23.730Z,7.83
2018-05-05T18:15:51.807Z,3.33
2018-05-05T18:18:19.341Z,4.03
2018-05-05T18:20:46.887Z,3.00
2018-05-05T18:23:14.363Z,1.60
2018-05-05T18:25:42.494Z,2.63
2018-05-05T18:28:10.085Z,2.23
2018-05-05T18:30:37.741Z,2.60
2018-05-05T18:33:05.202Z,2.10
2018-05-05T18:35:33.494Z,8.87
2018-05-05T18:38:01.931Z,1.60
2018-05-05T18:40:29.441Z,5.97
2018-05-05T18:42:57.721Z,7.33
2018-05-05T18:45:26.506Z,4.33
2018-05-05T18:47:54.064Z,3.30
2018-05-05T18:50:21.660Z,4.40
2018-05-05T18:52:49.133Z,5.40
2018-05-05T18:55:16.699Z,4.40
2018-05-05T18:57:44.293Z,4.63
2018-05-05T19:00:12.771Z,4.90
2018-05-05T19:02:41.072Z,2.30
2018-05-05T19:05:08.567Z,2.67
2018-05-05T19:07:36.848Z,2.53
2018-05-05T19:10:04.333Z,7.53
2018-05-05T19:12:31.922Z,4.63
2018-05-05T19:14:59.545Z,8.57
2018-05-05T19:17:27.491Z,3.37
2018-05-05T19:19:55.616Z,2.80
2018-05-05T19:22:23.218Z,2.80
2018-05-05T19:24:50.778Z,2.90
2018-05-05T19:27:18.432Z,2.90
2018-05-05T19:29:45.975Z,4.63
2018-05-05T19:32:13.495Z,3.00
2018-05-05T19:34:40.968Z,5.00
2018-05-05T19:37:09.382Z,3.67
2018-05-05T19:39:36.829Z,15.33
2018-05-05T19:42:04.380Z,3.50
2018-05-05T19:44:31.879Z,4.20
2018-05-05T19:47:02.037Z,6.27
2018-05-05T19:49:29.461Z,3.70
2018-05-05T19:51:57.690Z,3.93
2018-05-05T19:54:25.259Z,4.60
2018-05-05T19:56:52.860Z,2.90
2018-05-05T19:59:21.063Z,2.07
2018-05-05T20:01:48.606Z,2.50
2018-05-05T20:04:16.945Z,2.97
2018-05-05T20:06:44.764Z,3.37
2018-05-05T20:09:12.363Z,2.73
2018-05-05T20:11:40.353Z,2.30
2018-05-05T20:14:07.979Z,4.03
2018-05-05T20:16:35.530Z,2.73
2018-05-05T20:19:03.509Z,3.43
2018-05-05T20:21:31.799Z,2.30
2018-05-05T20:23:59.301Z,3.50
2018-05-05T20:26:26.916Z,6.90
2018-05-05T20:28:54.448Z,3.23
2018-05-05T20:31:22.767Z,2.90
2018-05-05T20:33:51.107Z,2.97
2018-05-05T20:36:18.609Z,2.00
2018-05-05T20:38:46.268Z,2.13
2018-05-05T20:41:13.768Z,3.00
2018-05-05T20:43:41.304Z,4.03
2018-05-05T20:46:08.915Z,1.80
2018-05-05T20:48:36.415Z,3.33
2018-05-05T20:51:04.747Z,2.47
2018-05-05T20:53:32.275Z,4.50
2018-05-05T20:56:01.463Z,2.93
2018-05-05T20:58:28.995Z,3.63
2018-05-05T21:00:56.559Z,1.90
2018-05-05T21:03:27.048Z,2.43
2018-05-05T21:05:54.693Z,2.40
2018-05-05T21:08:23.123Z,2.73
2018-05-05T21:10:50.686Z,3.70
2018-05-05T21:13:18.815Z,2.80
2018-05-05T21:15:46.325Z,7.50
2018-05-05T21:18:14.165Z,2.53
2018-05-05T21:20:41.717Z,6.37
2018-05-05T21:23:10.464Z,3.23
2018-05-05T21:25:38.055Z,3.00
2018-05-05T21:28:05.595Z,4.50
2018-05-05T21:30:33.309Z,2.07
2018-05-05T21:33:00.803Z,4.70
2018-05-05T21:35:28.314Z,6.17
2018-05-05T21:37:56.618Z,2.30
2018-05-05T21:40:24.151Z,2.20
2018-05-05T21:42:51.737Z,8.20
2018-05-05T21:45:19.432Z,7.17
2018-05-05T21:47:46.904Z,2.50
2018-05-05T21:50:14.472Z,9.30
2018-05-05T21:52:42.023Z,2.73
2018-05-05T21:55:10.320Z,4.50
2018-05-05T21:57:37.891Z,2.70
2018-05-05T22:00:05.398Z,3.07
2018-05-05T22:02:33.836Z,4.60
2018-05-05T22:05:01.472Z,3.07
2018-05-05T22:07:28.966Z,2.90
2018-05-05T22:09:56.858Z,4.33
2018-05-05T22:12:24.347Z,8.00
2018-05-05T22:14:52.137Z,3.57
2018-05-05T22:17:20.382Z,4.87
2018-05-05T22:19:48.031Z,2.70
2018-05-05T22:22:16.036Z,4.03
2018-05-05T22:24:44.327Z,4.13
2018-05-05T22:27:11.865Z,6.87
2018-05-05T22:29:39.499Z,2.90
2018-05-05T22:32:07.785Z,3.57
2018-05-05T22:34:36.018Z,6.30
2018-05-05T22:37:04.252Z,3.97
2018-05-05T22:39:31.732Z,4.27
2018-05-05T22:41:59.354Z,4.00
2018-05-05T22:44:27.612Z,3.90
2018-05-05T22:46:56.086Z,7.80
2018-05-05T22:49:23.789Z,5.50
2018-05-05T22:51:52.079Z,4.37
2018-05-05T22:54:19.945Z,4.23
2018-05-05T22:56:47.405Z,4.53
2018-05-05T22:59:14.940Z,9.63
2018-05-05T23:01:43.442Z,3.87
2018-05-05T23:04:11.007Z,4.23
2018-05-05T23:06:39.697Z,11.13
2018-05-05T23:09:07.203Z,4.63
2018-05-05T23:11:34.921Z,5.70
2018-05-05T23:14:02.535Z,4.57
2018-05-05T23:16:30.355Z,8.17
2018-05-05T23:18:57.820Z,3.73
2018-05-05T23:21:25.362Z,11.03
2018-05-05T23:23:53.647Z,10.53
2018-05-05T23:26:21.913Z,4.93
2018-05-05T23:28:49.452Z,4.47
2018-05-05T23:31:17.075Z,6.03
2018-05-05T23:33:44.858Z,4.03
2018-05-05T23:36:13.026Z,5.17
2018-05-05T23:38:40.535Z,5.20
2018-05-05T23:41:08.129Z,4.47
2018-05-05T23:43:35.642Z,4.97
2018-05-05T23:46:03.138Z,8.47
2018-05-05T23:48:30.611Z,4.30
2018-05-05T23:50:58.878Z,9.67
2018-05-05T23:53:26.382Z,4.03
2018-05-05T23:55:53.900Z,5.00
2018-05-05T23:58:21.501Z,4.00
